createdAt,value
2018-01-19T00:00:56.891Z,30.77
2018-01-19T00:03:25.135Z,44.53
2018-01-19T00:05:53.402Z,43.87
2018-01-19T00:08:21.663Z,34.00
2018-01-19T00:10:49.918Z,37.77
2018-01-19T00:13:18.177Z,40.57
2018-01-19T00:15:46.453Z,32.67
2018-01-19T00:18:14.691Z,41.40
2018-01-19T00:20:43.757Z,44.63
2018-01-19T00:23:18.732Z,39.63
2018-01-19T00:25:47.006Z,43.60
2018-01-19T00:28:16.027Z,34.20
2018-01-19T00:30:44.275Z,35.73
2018-01-19T00:33:13.323Z,32.03
2018-01-19T00:35:41.576Z,34.80
2018-01-19T00:38:09.847Z,38.63
2018-01-19T00:40:38.125Z,37.27
2018-01-19T00:43:06.382Z,33.43
2018-01-19T00:45:35.409Z,26.07
2018-01-19T00:48:03.675Z,30.27
2018-01-19T00:50:31.930Z,35.83
2018-01-19T00:53:00.208Z,27.90
2018-01-19T00:55:29.264Z,22.80
2018-01-19T00:57:57.505Z,27.73
2018-01-19T01:00:25.758Z,25.57
2018-01-19T01:02:54.026Z,26.87
2018-01-19T01:05:23.045Z,33.87
2018-01-19T01:07:51.296Z,28.10
2018-01-19T01:10:20.289Z,31.20
2018-01-19T01:12:49.325Z,28.87
2018-01-19T01:15:17.621Z,21.77
2018-01-19T01:17:45.881Z,29.83
2018-01-19T01:20:14.123Z,22.07
2018-01-19T01:22:43.575Z,19.00
2018-01-19T01:25:11.793Z,25.90
2018-01-19T01:27:40.056Z,26.23
2018-01-19T01:30:08.288Z,21.60
2018-01-19T01:32:36.548Z,38.77
2018-01-19T01:35:04.782Z,27.33
2018-01-19T01:37:33.041Z,26.83
2018-01-19T01:40:01.317Z,33.93
2018-01-19T01:42:29.589Z,30.13
2018-01-19T01:44:57.853Z,22.70
2018-01-19T01:47:26.101Z,32.60
2018-01-19T01:49:55.137Z,19.73
2018-01-19T01:52:23.357Z,29.67
2018-01-19T01:54:52.364Z,23.70
2018-01-19T01:57:21.570Z,21.83
2018-01-19T01:59:50.644Z,28.97
2018-01-19T02:02:19.019Z,35.20
2018-01-19T02:04:47.221Z,32.43
2018-01-19T02:07:15.478Z,48.23
2018-01-19T02:09:43.754Z,43.07
2018-01-19T02:12:12.044Z,34.70
2018-01-19T02:14:40.308Z,35.47
2018-01-19T02:17:08.539Z,37.73
2018-01-19T02:19:36.833Z,41.77
2018-01-19T02:22:05.103Z,38.50
2018-01-19T02:24:34.476Z,39.10
2018-01-19T02:27:02.764Z,34.93
2018-01-19T02:29:31.782Z,37.90
2018-01-19T02:32:00.027Z,37.70
2018-01-19T02:34:28.277Z,36.63
2018-01-19T02:36:57.325Z,32.37
2018-01-19T02:39:25.547Z,43.60
2018-01-19T02:41:54.586Z,34.93
2018-01-19T02:44:22.836Z,37.50
2018-01-19T02:46:51.085Z,37.70
2018-01-19T02:49:20.140Z,46.90
2018-01-19T02:51:48.397Z,36.40
2018-01-19T02:54:16.649Z,34.00
2018-01-19T02:56:45.702Z,27.03
2018-01-19T02:59:13.971Z,26.37
2018-01-19T03:01:42.363Z,33.70
2018-01-19T03:04:10.605Z,27.73
2018-01-19T03:06:38.851Z,42.03
2018-01-19T03:09:07.894Z,39.40
2018-01-19T03:11:36.146Z,42.23
2018-01-19T03:14:05.149Z,46.63
2018-01-19T03:16:33.416Z,33.80
2018-01-19T03:19:01.676Z,34.47
2018-01-19T03:21:31.633Z,47.07
2018-01-19T03:23:59.895Z,31.67
2018-01-19T03:26:28.942Z,44.27
2018-01-19T03:28:57.184Z,42.23
2018-01-19T03:31:25.433Z,41.00
2018-01-19T03:33:53.692Z,29.77
2018-01-19T03:36:22.689Z,31.30
2018-01-19T03:38:51.709Z,27.57
2018-01-19T03:41:19.950Z,24.17
2018-01-19T03:43:49.695Z,19.97
2018-01-19T03:46:17.946Z,19.70
2018-01-19T03:48:46.196Z,21.70
2018-01-19T03:51:14.444Z,17.67
2018-01-19T03:53:42.684Z,12.90
2018-01-19T03:56:11.703Z,18.50
2018-01-19T03:58:39.970Z,18.83
2018-01-19T04:01:08.258Z,15.77
2018-01-19T04:03:36.478Z,11.47
2018-01-19T04:06:04.764Z,12.43
2018-01-19T04:08:33.041Z,10.37
2018-01-19T04:11:01.289Z,8.80
2018-01-19T04:13:29.526Z,8.83
2018-01-19T04:15:58.520Z,9.77
2018-01-19T04:18:27.550Z,9.90
2018-01-19T04:20:55.808Z,13.77
2018-01-19T04:23:24.264Z,9.80
2018-01-19T04:25:53.312Z,9.47
2018-01-19T04:28:21.566Z,8.07
2018-01-19T04:30:49.830Z,6.33
2018-01-19T04:33:18.826Z,10.50
2018-01-19T04:35:47.819Z,12.13
2018-01-19T04:38:16.838Z,7.83
2018-01-19T04:40:45.093Z,7.90
2018-01-19T04:43:14.066Z,6.63
2018-01-19T04:45:43.132Z,6.90
2018-01-19T04:48:11.349Z,4.10
2018-01-19T04:50:40.378Z,6.70
2018-01-19T04:53:09.359Z,7.90
2018-01-19T04:55:38.383Z,4.83
2018-01-19T04:58:06.612Z,4.83
2018-01-19T05:00:35.629Z,6.57
2018-01-19T05:03:03.890Z,5.90
2018-01-19T05:05:32.902Z,4.57
2018-01-19T05:08:01.152Z,8.07
2018-01-19T05:10:30.905Z,6.33
2018-01-19T05:12:59.628Z,11.87
2018-01-19T05:15:27.869Z,11.03
2018-01-19T05:17:56.100Z,12.97
2018-01-19T05:20:25.099Z,16.47
2018-01-19T05:22:54.102Z,13.40
2018-01-19T05:25:22.385Z,15.30
2018-01-19T05:27:50.769Z,14.23
2018-01-19T05:30:19.759Z,18.73
2018-01-19T05:32:48.053Z,15.23
2018-01-19T05:35:17.062Z,23.23
2018-01-19T05:37:45.310Z,16.60
2018-01-19T05:40:13.562Z,14.07
2018-01-19T05:42:42.554Z,16.30
2018-01-19T05:45:11.606Z,15.10
2018-01-19T05:47:39.956Z,15.07
2018-01-19T05:50:08.148Z,12.63
2018-01-19T05:52:36.385Z,16.97
2018-01-19T05:55:05.395Z,21.20
2018-01-19T05:57:34.410Z,17.60
2018-01-19T06:00:02.977Z,19.13
2018-01-19T06:02:31.981Z,26.77
2018-01-19T06:05:01.025Z,20.03
2018-01-19T06:07:29.249Z,22.40
2018-01-19T06:09:57.542Z,17.33
2018-01-19T06:12:25.810Z,16.67
2018-01-19T06:14:54.898Z,19.43
2018-01-19T06:17:24.613Z,18.00
2018-01-19T06:19:53.685Z,29.53
2018-01-19T06:22:21.894Z,29.73
2018-01-19T06:24:50.129Z,17.17
2018-01-19T06:27:19.531Z,26.53
2018-01-19T06:29:47.756Z,24.43
2018-01-19T06:32:16.002Z,23.60
2018-01-19T06:34:45.019Z,22.57
2018-01-19T06:37:13.971Z,23.27
2018-01-19T06:39:42.203Z,20.73
2018-01-19T06:42:10.456Z,23.83
2018-01-19T06:44:39.528Z,31.37
2018-01-19T06:47:07.770Z,25.10
2018-01-19T06:49:36.043Z,18.70
2018-01-19T06:52:04.309Z,26.63
2018-01-19T06:54:32.576Z,23.17
2018-01-19T06:57:00.810Z,19.20
2018-01-19T06:59:29.844Z,22.47
2018-01-19T07:01:58.110Z,17.67
2018-01-19T07:04:27.145Z,21.27
2018-01-19T07:06:55.411Z,23.80
2018-01-19T07:09:23.658Z,19.77
2018-01-19T07:11:51.919Z,19.43
2018-01-19T07:14:20.960Z,25.30
2018-01-19T07:16:49.210Z,16.90
2018-01-19T07:19:17.513Z,21.40
2018-01-19T07:21:45.765Z,19.53
2018-01-19T07:24:14.002Z,17.73
2018-01-19T07:26:42.310Z,10.93
2018-01-19T07:29:11.345Z,13.50
2018-01-19T07:31:39.620Z,18.73
2018-01-19T07:34:07.895Z,12.90
2018-01-19T07:36:36.167Z,17.27
2018-01-19T07:39:04.419Z,15.30
2018-01-19T07:41:33.466Z,18.90
2018-01-19T07:44:01.723Z,19.90
2018-01-19T07:46:29.994Z,24.70
2018-01-19T07:48:58.236Z,15.10
2018-01-19T07:51:27.016Z,32.13
2018-01-19T07:53:56.060Z,17.40
2018-01-19T07:56:24.285Z,14.53
2018-01-19T07:58:53.791Z,20.57
2018-01-19T08:01:22.022Z,18.33
2018-01-19T08:03:50.288Z,16.30
2018-01-19T08:06:18.537Z,10.93
2018-01-19T08:08:48.205Z,21.17
2018-01-19T08:11:16.452Z,14.40
2018-01-19T08:13:44.707Z,13.40
2018-01-19T08:16:13.749Z,16.43
2018-01-19T08:18:41.957Z,29.27
2018-01-19T08:21:11.745Z,11.40
2018-01-19T08:23:40.034Z,13.70
2018-01-19T08:26:08.318Z,21.50
2018-01-19T08:28:36.544Z,15.27
2018-01-19T08:31:04.814Z,16.83
2018-01-19T08:33:33.882Z,12.73
2018-01-19T08:36:02.900Z,11.63
2018-01-19T08:38:31.159Z,54.63
2018-01-19T08:41:00.171Z,12.83
2018-01-19T08:43:28.437Z,15.77
2018-01-19T08:45:57.523Z,18.70
2018-01-19T08:48:25.756Z,24.03
2018-01-19T08:50:54.075Z,19.10
2018-01-19T08:53:23.846Z,19.40
2018-01-19T08:55:52.110Z,18.30
2018-01-19T08:58:20.436Z,17.50
2018-01-19T09:00:48.752Z,19.67
2018-01-19T09:03:17.019Z,19.10
2018-01-19T09:05:45.258Z,21.10
2018-01-19T09:08:13.583Z,25.73
2018-01-19T09:10:42.574Z,19.73
2018-01-19T09:13:10.821Z,19.53
2018-01-19T09:15:39.878Z,28.47
2018-01-19T09:18:08.157Z,31.43
2018-01-19T09:20:36.414Z,17.57
2018-01-19T09:23:04.681Z,26.10
2018-01-19T09:25:33.707Z,31.10
2018-01-19T09:28:02.702Z,25.37
2018-01-19T09:30:30.971Z,30.83
2018-01-19T09:32:59.197Z,26.27
2018-01-19T09:35:27.449Z,35.97
2018-01-19T09:37:55.698Z,33.53
2018-01-19T09:40:23.979Z,29.60
2018-01-19T09:42:52.282Z,30.70
2018-01-19T09:45:20.571Z,35.93
2018-01-19T09:47:48.834Z,30.23
2018-01-19T09:50:17.082Z,29.27
2018-01-19T09:52:45.356Z,28.27
2018-01-19T09:55:13.601Z,31.43
2018-01-19T09:57:42.633Z,45.83
2018-01-19T10:00:10.883Z,26.50
2018-01-19T10:02:39.165Z,29.00
2018-01-19T10:05:07.727Z,33.63
2018-01-19T10:07:36.767Z,39.93
2018-01-19T10:10:05.047Z,39.97
2018-01-19T10:12:33.292Z,33.87
2018-01-19T10:15:02.334Z,33.97
2018-01-19T10:17:30.576Z,27.57
2018-01-19T10:20:00.694Z,28.40
2018-01-19T10:22:28.949Z,23.83
2018-01-19T10:24:57.973Z,30.13
2018-01-19T10:27:26.257Z,25.90
2018-01-19T10:29:55.273Z,39.40
2018-01-19T10:32:23.537Z,28.80
2018-01-19T10:34:51.789Z,26.50
2018-01-19T10:37:20.092Z,27.07
2018-01-19T10:39:48.365Z,31.40
2018-01-19T10:42:16.651Z,30.30
2018-01-19T10:44:44.969Z,24.00
2018-01-19T10:47:13.246Z,25.10
2018-01-19T10:49:43.030Z,21.87
2018-01-19T10:52:11.284Z,16.87
2018-01-19T10:54:39.861Z,74.97
2018-01-19T10:57:08.129Z,15.60
2018-01-19T10:59:36.379Z,20.03
2018-01-19T11:02:04.686Z,18.07
2018-01-19T11:04:33.755Z,20.90
2018-01-19T11:07:01.979Z,18.07
2018-01-19T11:09:30.305Z,29.33
2018-01-19T11:11:58.833Z,17.57
2018-01-19T11:14:27.116Z,19.27
2018-01-19T11:16:55.396Z,23.37
2018-01-19T11:19:23.672Z,18.70
2018-01-19T11:21:51.920Z,27.63
2018-01-19T11:24:20.924Z,26.90
2018-01-19T11:26:49.937Z,20.93
2018-01-19T11:29:18.234Z,19.03
2018-01-19T11:31:46.498Z,22.10
2018-01-19T11:34:14.785Z,21.70
2018-01-19T11:36:43.180Z,24.33
2018-01-19T11:39:11.430Z,17.07
2018-01-19T11:41:39.677Z,20.20
2018-01-19T11:44:08.704Z,21.67
2018-01-19T11:46:36.983Z,20.57
2018-01-19T11:49:05.224Z,16.90
2018-01-19T11:51:34.262Z,15.47
2018-01-19T11:54:02.531Z,15.00
2018-01-19T11:56:30.822Z,19.10
2018-01-19T11:59:01.169Z,23.77
2018-01-19T12:01:30.164Z,15.87
2018-01-19T12:03:59.334Z,14.90
2018-01-19T12:06:28.300Z,19.00
2018-01-19T12:08:56.607Z,14.50
2018-01-19T12:11:24.884Z,25.53
2018-01-19T12:13:53.150Z,40.57
2018-01-19T12:16:21.951Z,19.93
2018-01-19T12:18:50.994Z,17.63
2018-01-19T12:21:19.271Z,24.17
2018-01-19T12:23:49.013Z,20.63
2018-01-19T12:26:17.266Z,35.93
2018-01-19T12:28:45.526Z,15.10
2018-01-19T12:31:13.829Z,27.87
2018-01-19T12:33:43.002Z,20.87
2018-01-19T12:36:11.270Z,21.30
2018-01-19T12:38:39.512Z,33.03
2018-01-19T12:41:07.800Z,13.20
2018-01-19T12:43:36.037Z,20.00
2018-01-19T12:46:05.056Z,21.80
2018-01-19T12:48:33.362Z,19.60
2018-01-19T12:51:01.625Z,11.23
2018-01-19T12:53:29.886Z,16.30
2018-01-19T12:55:58.139Z,13.73
2018-01-19T12:58:27.172Z,18.07
2018-01-19T13:00:55.414Z,11.10
2018-01-19T13:03:24.426Z,13.17
2018-01-19T13:05:52.698Z,15.37
2018-01-19T13:08:20.988Z,32.67
2018-01-19T13:10:49.266Z,12.63
2018-01-19T13:13:17.512Z,15.67
2018-01-19T13:15:45.779Z,24.70
2018-01-19T13:18:14.033Z,21.50
2018-01-19T13:20:42.272Z,17.70
2018-01-19T13:23:10.548Z,48.17
2018-01-19T13:25:38.842Z,13.63
2018-01-19T13:28:07.823Z,16.37
2018-01-19T13:30:36.054Z,14.10
2018-01-19T13:33:05.834Z,14.73
2018-01-19T13:35:34.103Z,17.13
2018-01-19T13:38:02.388Z,15.30
2018-01-19T13:40:30.629Z,12.80
2018-01-19T13:42:59.654Z,18.13
2018-01-19T13:45:29.471Z,26.13
2018-01-19T13:47:57.777Z,21.20
2018-01-19T13:50:26.042Z,17.00
2018-01-19T13:52:54.317Z,17.90
2018-01-19T13:55:22.579Z,8.77
2018-01-19T13:57:50.813Z,15.80
2018-01-19T14:00:19.865Z,10.33
2018-01-19T14:02:48.177Z,18.43
2018-01-19T14:05:16.443Z,17.60
2018-01-19T14:07:44.726Z,18.40
2018-01-19T14:10:12.999Z,13.50
2018-01-19T14:12:41.246Z,17.83
2018-01-19T14:15:09.659Z,16.67
2018-01-19T14:17:37.894Z,30.60
2018-01-19T14:20:06.154Z,17.40
2018-01-19T14:22:34.543Z,15.27
2018-01-19T14:25:02.769Z,21.23
2018-01-19T14:27:31.009Z,15.83
2018-01-19T14:29:59.312Z,11.30
2018-01-19T14:32:27.556Z,12.60
2018-01-19T14:34:55.842Z,14.23
2018-01-19T14:37:24.109Z,13.60
2018-01-19T14:39:52.364Z,21.20
2018-01-19T14:42:20.654Z,13.57
2018-01-19T14:44:48.923Z,20.73
2018-01-19T14:47:17.268Z,7.77
2018-01-19T14:49:45.483Z,9.57
2018-01-19T14:52:13.785Z,19.77
2018-01-19T14:54:43.357Z,17.13
2018-01-19T14:57:12.372Z,17.30
2018-01-19T14:59:40.713Z,25.87
2018-01-19T15:02:08.967Z,14.93
2018-01-19T15:04:37.221Z,24.13
2018-01-19T15:07:05.523Z,13.03
2018-01-19T15:09:33.820Z,15.87
2018-01-19T15:12:02.054Z,16.60
2018-01-19T15:14:30.323Z,27.43
2018-01-19T15:16:58.588Z,18.83
2018-01-19T15:19:26.839Z,25.37
2018-01-19T15:21:55.083Z,14.70
2018-01-19T15:24:23.337Z,24.33
2018-01-19T15:26:51.597Z,25.20
2018-01-19T15:29:19.863Z,16.13
2018-01-19T15:31:48.143Z,28.73
2018-01-19T15:34:16.440Z,11.07
2018-01-19T15:36:44.678Z,18.23
2018-01-19T15:39:14.439Z,16.77
2018-01-19T15:41:42.842Z,17.03
2018-01-19T15:44:11.164Z,15.17
2018-01-19T15:46:40.175Z,24.77
2018-01-19T15:49:08.463Z,10.53
2018-01-19T15:51:36.704Z,13.93
2018-01-19T15:54:05.742Z,21.90
2018-01-19T15:56:33.967Z,14.53
2018-01-19T15:59:03.019Z,12.37
2018-01-19T16:01:31.311Z,16.40
2018-01-19T16:03:59.537Z,21.37
2018-01-19T16:06:27.902Z,15.23
2018-01-19T16:08:56.161Z,10.40
2018-01-19T16:11:24.444Z,19.57
2018-01-19T16:13:52.869Z,11.20
2018-01-19T16:16:21.612Z,19.60
2018-01-19T16:18:49.961Z,14.90
2018-01-19T16:21:19.747Z,15.63
2018-01-19T16:23:48.010Z,9.53
2018-01-19T16:26:16.293Z,12.40
2018-01-19T16:28:44.560Z,9.00
2018-01-19T16:31:13.591Z,14.90
2018-01-19T16:33:41.864Z,13.97
2018-01-19T16:36:11.005Z,10.37
2018-01-19T16:38:39.786Z,22.77
2018-01-19T16:41:08.099Z,15.13
2018-01-19T16:43:37.130Z,16.83
2018-01-19T16:46:05.418Z,13.40
2018-01-19T16:48:33.747Z,16.70
2018-01-19T16:51:02.762Z,17.80
2018-01-19T16:53:31.513Z,15.27
2018-01-19T16:55:59.744Z,16.43
2018-01-19T16:58:28.039Z,18.20
2018-01-19T17:00:56.321Z,15.73
2018-01-19T17:03:24.578Z,27.53
2018-01-19T17:05:52.894Z,18.23
2018-01-19T17:08:21.187Z,17.80
2018-01-19T17:10:49.425Z,28.33
2018-01-19T17:13:18.811Z,18.50
2018-01-19T17:15:47.104Z,27.63
2018-01-19T17:18:15.428Z,12.47
2018-01-19T17:20:44.473Z,24.40
2018-01-19T17:23:12.729Z,28.53
2018-01-19T17:25:41.004Z,18.83
2018-01-19T17:28:09.301Z,18.17
2018-01-19T17:30:37.584Z,16.43
2018-01-19T17:33:05.838Z,23.13
2018-01-19T17:35:34.076Z,17.80
2018-01-19T17:38:02.367Z,28.90
2018-01-19T17:40:31.405Z,20.53
2018-01-19T17:42:59.722Z,18.30
2018-01-19T17:45:27.997Z,25.10
2018-01-19T17:47:56.273Z,16.63
2018-01-19T17:50:24.532Z,20.77
2018-01-19T17:52:52.789Z,23.00
2018-01-19T17:55:21.072Z,30.70
2018-01-19T17:57:49.380Z,25.90
2018-01-19T18:00:17.638Z,22.63
2018-01-19T18:02:45.906Z,21.03
2018-01-19T18:05:14.145Z,33.47
2018-01-19T18:07:42.420Z,27.80
2018-01-19T18:10:11.463Z,19.87
2018-01-19T18:12:39.777Z,37.17
2018-01-19T18:15:08.824Z,25.97
2018-01-19T18:17:37.049Z,27.13
2018-01-19T18:20:05.362Z,23.43
2018-01-19T18:22:33.618Z,22.27
2018-01-19T18:25:02.381Z,20.10
2018-01-19T18:27:30.622Z,20.47
2018-01-19T18:29:58.958Z,15.50
2018-01-19T18:32:27.177Z,31.73
2018-01-19T18:34:55.450Z,24.00
2018-01-19T18:37:23.782Z,28.90
2018-01-19T18:39:52.167Z,36.03
2018-01-19T18:42:20.508Z,24.63
2018-01-19T18:44:48.957Z,22.00
2018-01-19T18:47:17.272Z,29.27
2018-01-19T18:49:45.584Z,43.03
2018-01-19T18:52:14.693Z,26.13
2018-01-19T18:54:43.001Z,22.07
2018-01-19T18:57:11.317Z,25.23
2018-01-19T18:59:39.804Z,24.30
2018-01-19T19:02:08.157Z,25.93
2018-01-19T19:04:37.368Z,31.53
2018-01-19T19:07:05.693Z,19.00
2018-01-19T19:09:34.019Z,20.60
2018-01-19T19:12:02.381Z,34.37
2018-01-19T19:14:31.246Z,18.83
2018-01-19T19:16:59.643Z,23.03
2018-01-19T19:19:28.014Z,22.93
2018-01-19T19:21:56.349Z,27.60
2018-01-19T19:24:24.593Z,30.03
2018-01-19T19:26:52.907Z,21.37
2018-01-19T19:29:22.015Z,31.83
2018-01-19T19:31:50.370Z,26.13
2018-01-19T19:34:18.654Z,28.83
2018-01-19T19:36:47.060Z,19.53
2018-01-19T19:39:17.073Z,13.90
2018-01-19T19:41:45.347Z,16.80
2018-01-19T19:44:14.419Z,18.17
2018-01-19T19:46:42.734Z,21.90
2018-01-19T19:49:11.046Z,33.27
2018-01-19T19:51:39.427Z,35.93
2018-01-19T19:54:07.735Z,24.07
2018-01-19T19:56:36.007Z,27.90
2018-01-19T19:59:05.024Z,13.03
2018-01-19T20:01:34.829Z,20.93
2018-01-19T20:04:03.166Z,24.13
2018-01-19T20:06:31.466Z,9.43
2018-01-19T20:09:00.288Z,12.03
2018-01-19T20:11:28.599Z,9.40
2018-01-19T20:13:57.723Z,14.40
2018-01-19T20:16:26.048Z,9.03
2018-01-19T20:18:54.417Z,13.40
2018-01-19T20:21:22.780Z,9.23
2018-01-19T20:23:51.081Z,10.00
2018-01-19T20:26:19.341Z,17.50
2018-01-19T20:28:48.454Z,12.23
2018-01-19T20:31:16.817Z,13.30
2018-01-19T20:33:46.441Z,16.53
2018-01-19T20:36:15.953Z,16.53
2018-01-19T20:38:44.335Z,15.07
2018-01-19T20:41:13.732Z,11.00
2018-01-19T20:43:42.075Z,12.97
2018-01-19T20:46:10.381Z,13.83
2018-01-19T20:48:39.477Z,16.83
2018-01-19T20:51:08.583Z,16.83
2018-01-19T20:53:37.776Z,17.83
2018-01-19T20:56:06.914Z,15.90
2018-01-19T20:58:35.246Z,17.50
2018-01-19T21:01:03.940Z,21.30
2018-01-19T21:03:32.304Z,39.73
2018-01-19T21:06:01.002Z,16.50
2018-01-19T21:08:30.180Z,15.00
2018-01-19T21:10:58.435Z,44.67
2018-01-19T21:13:26.800Z,20.17
2018-01-19T21:15:55.840Z,17.20
2018-01-19T21:18:24.190Z,21.23
2018-01-19T21:20:52.596Z,19.60
2018-01-19T21:23:20.905Z,45.87
2018-01-19T21:25:50.788Z,28.20
2018-01-19T21:28:19.061Z,30.40
2018-01-19T21:30:48.338Z,25.97
2018-01-19T21:33:16.596Z,28.90
2018-01-19T21:35:44.941Z,26.70
2018-01-19T21:38:13.991Z,34.53
2018-01-19T21:40:42.277Z,27.87
2018-01-19T21:43:11.409Z,37.23
2018-01-19T21:45:39.708Z,30.13
2018-01-19T21:48:08.807Z,52.10
2018-01-19T21:50:37.878Z,49.60
2018-01-19T21:53:06.174Z,55.43
2018-01-19T21:55:35.240Z,37.60
2018-01-19T21:58:03.530Z,43.07
2018-01-19T22:00:33.322Z,32.67
2018-01-19T22:03:01.618Z,23.80
2018-01-19T22:05:29.882Z,28.43
2018-01-19T22:07:58.232Z,28.60
2018-01-19T22:10:26.529Z,32.93
2018-01-19T22:12:54.810Z,35.67
2018-01-19T22:15:23.106Z,35.50
2018-01-19T22:17:51.371Z,25.13
2018-01-19T22:20:19.777Z,27.53
2018-01-19T22:22:48.789Z,24.87
2018-01-19T22:25:17.865Z,34.17
2018-01-19T22:27:46.110Z,27.90
2018-01-19T22:30:14.395Z,21.50
2018-01-19T22:32:42.709Z,36.07
2018-01-19T22:35:11.764Z,32.97
2018-01-19T22:37:40.027Z,24.03
2018-01-19T22:40:08.313Z,34.10
2018-01-19T22:42:36.592Z,37.37
2018-01-19T22:45:04.907Z,31.53
2018-01-19T22:47:33.149Z,38.60
2018-01-19T22:50:01.459Z,29.07
2018-01-19T22:52:29.726Z,35.80
2018-01-19T22:54:58.015Z,29.93
2018-01-19T22:57:26.290Z,26.33
2018-01-19T22:59:56.057Z,25.33
2018-01-19T23:02:24.318Z,31.03
2018-01-19T23:04:52.586Z,25.10
2018-01-19T23:07:21.659Z,39.77
2018-01-19T23:09:49.999Z,29.53
2018-01-19T23:12:18.262Z,30.43
2018-01-19T23:14:46.532Z,36.33
2018-01-19T23:17:15.509Z,26.27
2018-01-19T23:19:44.620Z,34.87
2018-01-19T23:22:13.692Z,26.23
2018-01-19T23:24:42.743Z,33.13
2018-01-19T23:27:11.029Z,26.07
2018-01-19T23:29:39.327Z,23.93
2018-01-19T23:32:08.373Z,36.80
2018-01-19T23:34:36.634Z,33.53
2018-01-19T23:37:04.902Z,30.40
2018-01-19T23:39:33.947Z,29.77
2018-01-19T23:42:02.207Z,29.97
2018-01-19T23:44:30.480Z,43.57
2018-01-19T23:46:58.822Z,25.63
2018-01-19T23:49:27.849Z,40.47
2018-01-19T23:51:56.112Z,30.10
2018-01-19T23:54:24.426Z,26.77
2018-01-19T23:56:52.696Z,33.17
2018-01-19T23:59:20.937Z,37.30
